sensor_id;sensor_type;location;lat;lon;timestamp;P1;durP1;ratioP1;P2;durP2;ratioP2
38843;SDS011;24596;48.080;8.362;2023-08-20T00:02:11;12.30;;;8.80;;
38843;SDS011;24596;48.080;8.362;2023-08-20T00:04:36;14.88;;;8.48;;
38843;SDS011;24596;48.080;8.362;2023-08-20T00:07:02;10.85;;;7.80;;
38843;SDS011;24596;48.080;8.362;2023-08-20T00:09:27;13.95;;;8.27;;
38843;SDS011;24596;48.080;8.362;2023-08-20T00:11:53;13.23;;;8.60;;
38843;SDS011;24596;48.080;8.362;2023-08-20T00:14:18;12.02;;;8.70;;
38843;SDS011;24596;48.080;8.362;2023-08-20T00:16:43;13.75;;;9.23;;
38843;SDS011;24596;48.080;8.362;2023-08-20T00:19:09;13.40;;;8.77;;
38843;SDS011;24596;48.080;8.362;2023-08-20T00:21:34;14.15;;;9.27;;
38843;SDS011;24596;48.080;8.362;2023-08-20T00:24:00;13.63;;;8.30;;
38843;SDS011;24596;48.080;8.362;2023-08-20T00:26:25;18.90;;;8.05;;
38843;SDS011;24596;48.080;8.362;2023-08-20T00:28:50;14.02;;;8.48;;
38843;SDS011;24596;48.080;8.362;2023-08-20T00:31:16;15.05;;;8.65;;
38843;SDS011;24596;48.080;8.362;2023-08-20T00:33:41;13.68;;;8.85;;
38843;SDS011;24596;48.080;8.362;2023-08-20T00:36:06;13.35;;;8.63;;
38843;SDS011;24596;48.080;8.362;2023-08-20T00:38:32;12.18;;;8.70;;
38843;SDS011;24596;48.080;8.362;2023-08-20T00:40:57;15.98;;;9.02;;
38843;SDS011;24596;48.080;8.362;2023-08-20T00:43:22;13.82;;;9.55;;
38843;SDS011;24596;48.080;8.362;2023-08-20T00:45:48;19.83;;;9.48;;
38843;SDS011;24596;48.080;8.362;2023-08-20T00:48:13;15.00;;;8.70;;
38843;SDS011;24596;48.080;8.362;2023-08-20T00:50:39;19.38;;;9.38;;
38843;SDS011;24596;48.080;8.362;2023-08-20T00:53:05;17.98;;;8.75;;
38843;SDS011;24596;48.080;8.362;2023-08-20T00:55:30;12.65;;;8.95;;
38843;SDS011;24596;48.080;8.362;2023-08-20T00:57:55;13.77;;;9.20;;
38843;SDS011;24596;48.080;8.362;2023-08-20T01:00:21;13.05;;;9.30;;
38843;SDS011;24596;48.080;8.362;2023-08-20T01:02:48;16.63;;;9.77;;
38843;SDS011;24596;48.080;8.362;2023-08-20T01:05:13;14.75;;;9.05;;
38843;SDS011;24596;48.080;8.362;2023-08-20T01:07:43;12.13;;;8.95;;
38843;SDS011;24596;48.080;8.362;2023-08-20T01:12:38;15.60;;;9.02;;
38843;SDS011;24596;48.080;8.362;2023-08-20T01:15:03;15.27;;;8.93;;
38843;SDS011;24596;48.080;8.362;2023-08-20T01:17:29;13.43;;;9.15;;
38843;SDS011;24596;48.080;8.362;2023-08-20T01:19:54;15.30;;;9.03;;
38843;SDS011;24596;48.080;8.362;2023-08-20T01:22:34;13.10;;;9.07;;
38843;SDS011;24596;48.080;8.362;2023-08-20T01:30:06;14.38;;;9.32;;
38843;SDS011;24596;48.080;8.362;2023-08-20T01:32:33;12.90;;;9.52;;
38843;SDS011;24596;48.080;8.362;2023-08-20T01:34:58;13.48;;;10.05;;
38843;SDS011;24596;48.080;8.362;2023-08-20T01:37:24;15.55;;;9.30;;
38843;SDS011;24596;48.080;8.362;2023-08-20T01:39:49;16.63;;;9.65;;
38843;SDS011;24596;48.080;8.362;2023-08-20T01:42:14;15.80;;;9.00;;
38843;SDS011;24596;48.080;8.362;2023-08-20T01:44:39;20.60;;;9.87;;
38843;SDS011;24596;48.080;8.362;2023-08-20T01:47:05;15.07;;;9.82;;
38843;SDS011;24596;48.080;8.362;2023-08-20T01:49:30;17.70;;;9.55;;
38843;SDS011;24596;48.080;8.362;2023-08-20T01:51:55;13.13;;;8.65;;
38843;SDS011;24596;48.080;8.362;2023-08-20T01:54:20;16.27;;;10.02;;
38843;SDS011;24596;48.080;8.362;2023-08-20T01:56:45;14.30;;;8.45;;
38843;SDS011;24596;48.080;8.362;2023-08-20T01:59:11;15.32;;;8.70;;
38843;SDS011;24596;48.080;8.362;2023-08-20T02:01:36;17.02;;;9.70;;
38843;SDS011;24596;48.080;8.362;2023-08-20T02:04:02;21.38;;;9.88;;
38843;SDS011;24596;48.080;8.362;2023-08-20T02:06:27;14.93;;;9.68;;
38843;SDS011;24596;48.080;8.362;2023-08-20T02:08:52;14.50;;;10.27;;
38843;SDS011;24596;48.080;8.362;2023-08-20T02:11:18;15.75;;;10.40;;
38843;SDS011;24596;48.080;8.362;2023-08-20T02:13:43;12.67;;;9.70;;
38843;SDS011;24596;48.080;8.362;2023-08-20T02:16:08;18.05;;;9.38;;
38843;SDS011;24596;48.080;8.362;2023-08-20T02:18:33;19.48;;;10.18;;
38843;SDS011;24596;48.080;8.362;2023-08-20T02:20:58;12.57;;;9.45;;
38843;SDS011;24596;48.080;8.362;2023-08-20T02:23:24;13.70;;;9.88;;
38843;SDS011;24596;48.080;8.362;2023-08-20T02:25:49;15.07;;;9.45;;
38843;SDS011;24596;48.080;8.362;2023-08-20T02:28:14;16.13;;;10.73;;
38843;SDS011;24596;48.080;8.362;2023-08-20T02:30:43;15.43;;;10.20;;
38843;SDS011;24596;48.080;8.362;2023-08-20T02:33:08;15.55;;;10.75;;
38843;SDS011;24596;48.080;8.362;2023-08-20T02:35:35;15.02;;;12.27;;
38843;SDS011;24596;48.080;8.362;2023-08-20T02:38:00;19.20;;;12.98;;
38843;SDS011;24596;48.080;8.362;2023-08-20T02:40:25;19.08;;;12.45;;
38843;SDS011;24596;48.080;8.362;2023-08-20T02:42:50;20.23;;;11.00;;
38843;SDS011;24596;48.080;8.362;2023-08-20T02:45:15;19.73;;;9.93;;
38843;SDS011;24596;48.080;8.362;2023-08-20T02:47:41;16.90;;;11.00;;
38843;SDS011;24596;48.080;8.362;2023-08-20T02:50:06;13.95;;;10.38;;
38843;SDS011;24596;48.080;8.362;2023-08-20T02:52:31;17.05;;;9.63;;
38843;SDS011;24596;48.080;8.362;2023-08-20T02:54:56;19.47;;;10.47;;
38843;SDS011;24596;48.080;8.362;2023-08-20T02:57:22;17.08;;;10.40;;
38843;SDS011;24596;48.080;8.362;2023-08-20T02:59:47;16.80;;;10.27;;
38843;SDS011;24596;48.080;8.362;2023-08-20T03:02:12;16.37;;;9.50;;
38843;SDS011;24596;48.080;8.362;2023-08-20T03:04:37;14.27;;;10.40;;
38843;SDS011;24596;48.080;8.362;2023-08-20T03:07:02;15.90;;;10.33;;
38843;SDS011;24596;48.080;8.362;2023-08-20T03:09:28;14.35;;;10.07;;
38843;SDS011;24596;48.080;8.362;2023-08-20T03:11:53;22.80;;;9.85;;
38843;SDS011;24596;48.080;8.362;2023-08-20T03:14:18;18.02;;;10.80;;
38843;SDS011;24596;48.080;8.362;2023-08-20T03:16:43;17.30;;;10.70;;
38843;SDS011;24596;48.080;8.362;2023-08-20T03:19:09;19.58;;;10.90;;
38843;SDS011;24596;48.080;8.362;2023-08-20T03:21:34;16.07;;;10.37;;
38843;SDS011;24596;48.080;8.362;2023-08-20T03:23:59;18.00;;;11.65;;
38843;SDS011;24596;48.080;8.362;2023-08-20T03:26:24;15.70;;;11.45;;
38843;SDS011;24596;48.080;8.362;2023-08-20T03:28:50;13.00;;;10.80;;
38843;SDS011;24596;48.080;8.362;2023-08-20T03:31:15;16.52;;;11.27;;
38843;SDS011;24596;48.080;8.362;2023-08-20T03:33:40;17.67;;;11.83;;
38843;SDS011;24596;48.080;8.362;2023-08-20T03:36:05;14.20;;;9.90;;
38843;SDS011;24596;48.080;8.362;2023-08-20T03:38:30;16.45;;;9.60;;
38843;SDS011;24596;48.080;8.362;2023-08-20T03:40:56;14.38;;;10.55;;
38843;SDS011;24596;48.080;8.362;2023-08-20T03:43:21;14.23;;;10.27;;
38843;SDS011;24596;48.080;8.362;2023-08-20T03:45:49;14.48;;;10.32;;
38843;SDS011;24596;48.080;8.362;2023-08-20T03:48:14;14.70;;;10.85;;
38843;SDS011;24596;48.080;8.362;2023-08-20T03:50:40;17.95;;;10.82;;
38843;SDS011;24596;48.080;8.362;2023-08-20T03:53:05;15.57;;;9.80;;
38843;SDS011;24596;48.080;8.362;2023-08-20T03:55:30;19.37;;;11.40;;
38843;SDS011;24596;48.080;8.362;2023-08-20T03:57:55;16.90;;;11.15;;
38843;SDS011;24596;48.080;8.362;2023-08-20T04:00:20;16.70;;;10.80;;
38843;SDS011;24596;48.080;8.362;2023-08-20T04:02:46;16.88;;;10.73;;
38843;SDS011;24596;48.080;8.362;2023-08-20T04:05:11;15.98;;;10.02;;
38843;SDS011;24596;48.080;8.362;2023-08-20T04:07:37;14.50;;;10.48;;
38843;SDS011;24596;48.080;8.362;2023-08-20T04:10:02;15.27;;;10.50;;
38843;SDS011;24596;48.080;8.362;2023-08-20T04:12:27;15.63;;;10.48;;
38843;SDS011;24596;48.080;8.362;2023-08-20T04:14:52;16.35;;;10.68;;
38843;SDS011;24596;48.080;8.362;2023-08-20T04:17:17;17.85;;;11.50;;
38843;SDS011;24596;48.080;8.362;2023-08-20T04:19:43;17.30;;;11.57;;
38843;SDS011;24596;48.080;8.362;2023-08-20T04:22:08;17.13;;;11.27;;
38843;SDS011;24596;48.080;8.362;2023-08-20T04:24:33;18.83;;;12.27;;
38843;SDS011;24596;48.080;8.362;2023-08-20T04:26:58;15.60;;;12.50;;
38843;SDS011;24596;48.080;8.362;2023-08-20T04:29:24;15.48;;;12.10;;
38843;SDS011;24596;48.080;8.362;2023-08-20T04:31:49;17.10;;;12.02;;
38843;SDS011;24596;48.080;8.362;2023-08-20T04:34:14;24.52;;;13.90;;
38843;SDS011;24596;48.080;8.362;2023-08-20T04:36:39;17.98;;;13.85;;
38843;SDS011;24596;48.080;8.362;2023-08-20T04:39:05;18.30;;;12.85;;
38843;SDS011;24596;48.080;8.362;2023-08-20T04:41:30;17.13;;;13.00;;
38843;SDS011;24596;48.080;8.362;2023-08-20T04:43:55;14.37;;;11.63;;
38843;SDS011;24596;48.080;8.362;2023-08-20T04:46:20;15.40;;;11.77;;
38843;SDS011;24596;48.080;8.362;2023-08-20T04:48:45;14.43;;;10.43;;
38843;SDS011;24596;48.080;8.362;2023-08-20T04:51:11;15.55;;;11.73;;
38843;SDS011;24596;48.080;8.362;2023-08-20T04:53:36;20.92;;;11.95;;
38843;SDS011;24596;48.080;8.362;2023-08-20T04:56:01;16.50;;;11.73;;
38843;SDS011;24596;48.080;8.362;2023-08-20T04:58:27;13.98;;;11.13;;
38843;SDS011;24596;48.080;8.362;2023-08-20T05:00:52;17.77;;;12.10;;
38843;SDS011;24596;48.080;8.362;2023-08-20T05:03:17;15.35;;;11.45;;
38843;SDS011;24596;48.080;8.362;2023-08-20T05:05:47;15.93;;;11.52;;
38843;SDS011;24596;48.080;8.362;2023-08-20T05:08:12;18.63;;;12.95;;
38843;SDS011;24596;48.080;8.362;2023-08-20T05:10:38;19.80;;;12.38;;
38843;SDS011;24596;48.080;8.362;2023-08-20T05:13:05;21.42;;;12.07;;
38843;SDS011;24596;48.080;8.362;2023-08-20T05:15:30;16.30;;;12.00;;
38843;SDS011;24596;48.080;8.362;2023-08-20T05:17:55;18.07;;;11.80;;
38843;SDS011;24596;48.080;8.362;2023-08-20T05:20:20;15.57;;;10.80;;
38843;SDS011;24596;48.080;8.362;2023-08-20T05:22:46;15.35;;;10.45;;
38843;SDS011;24596;48.080;8.362;2023-08-20T05:25:11;15.27;;;11.50;;
38843;SDS011;24596;48.080;8.362;2023-08-20T05:27:36;14.03;;;11.13;;
38843;SDS011;24596;48.080;8.362;2023-08-20T05:30:01;15.73;;;11.88;;
38843;SDS011;24596;48.080;8.362;2023-08-20T05:32:28;16.83;;;12.13;;
38843;SDS011;24596;48.080;8.362;2023-08-20T05:34:53;18.00;;;12.15;;
38843;SDS011;24596;48.080;8.362;2023-08-20T05:37:18;18.73;;;13.07;;
38843;SDS011;24596;48.080;8.362;2023-08-20T05:39:44;17.07;;;12.77;;
38843;SDS011;24596;48.080;8.362;2023-08-20T05:42:09;18.15;;;12.27;;
38843;SDS011;24596;48.080;8.362;2023-08-20T05:44:35;18.27;;;13.20;;
38843;SDS011;24596;48.080;8.362;2023-08-20T05:47:01;16.13;;;12.52;;
38843;SDS011;24596;48.080;8.362;2023-08-20T05:49:26;18.15;;;13.02;;
38843;SDS011;24596;48.080;8.362;2023-08-20T05:51:51;14.02;;;12.05;;
38843;SDS011;24596;48.080;8.362;2023-08-20T05:54:17;15.20;;;11.43;;
38843;SDS011;24596;48.080;8.362;2023-08-20T05:56:42;17.63;;;12.57;;
38843;SDS011;24596;48.080;8.362;2023-08-20T05:59:07;19.58;;;11.85;;
38843;SDS011;24596;48.080;8.362;2023-08-20T06:01:33;19.77;;;12.95;;
38843;SDS011;24596;48.080;8.362;2023-08-20T06:03:58;15.82;;;12.68;;
38843;SDS011;24596;48.080;8.362;2023-08-20T06:06:25;16.33;;;12.13;;
38843;SDS011;24596;48.080;8.362;2023-08-20T06:08:51;16.13;;;11.93;;
38843;SDS011;24596;48.080;8.362;2023-08-20T06:11:16;15.13;;;11.65;;
38843;SDS011;24596;48.080;8.362;2023-08-20T06:13:41;17.80;;;11.27;;
38843;SDS011;24596;48.080;8.362;2023-08-20T06:16:07;15.97;;;12.37;;
38843;SDS011;24596;48.080;8.362;2023-08-20T06:18:32;17.52;;;13.18;;
38843;SDS011;24596;48.080;8.362;2023-08-20T06:20:57;19.25;;;13.10;;
38843;SDS011;24596;48.080;8.362;2023-08-20T06:23:22;20.80;;;12.80;;
38843;SDS011;24596;48.080;8.362;2023-08-20T06:25:49;15.27;;;13.03;;
38843;SDS011;24596;48.080;8.362;2023-08-20T06:28:15;19.88;;;12.25;;
38843;SDS011;24596;48.080;8.362;2023-08-20T06:30:40;14.60;;;11.60;;
38843;SDS011;24596;48.080;8.362;2023-08-20T06:33:05;16.93;;;11.97;;
38843;SDS011;24596;48.080;8.362;2023-08-20T06:35:31;15.43;;;12.07;;
38843;SDS011;24596;48.080;8.362;2023-08-20T06:37:56;16.13;;;11.77;;
38843;SDS011;24596;48.080;8.362;2023-08-20T06:40:22;18.98;;;12.43;;
38843;SDS011;24596;48.080;8.362;2023-08-20T06:42:47;16.67;;;12.73;;
38843;SDS011;24596;48.080;8.362;2023-08-20T06:45:12;22.23;;;12.87;;
38843;SDS011;24596;48.080;8.362;2023-08-20T06:47:38;17.50;;;12.70;;
38843;SDS011;24596;48.080;8.362;2023-08-20T06:50:04;15.50;;;12.13;;
38843;SDS011;24596;48.080;8.362;2023-08-20T06:52:29;15.93;;;12.38;;
38843;SDS011;24596;48.080;8.362;2023-08-20T06:54:54;15.20;;;11.52;;
38843;SDS011;24596;48.080;8.362;2023-08-20T06:57:20;19.13;;;12.30;;
38843;SDS011;24596;48.080;8.362;2023-08-20T06:59:45;15.70;;;11.18;;
38843;SDS011;24596;48.080;8.362;2023-08-20T07:02:10;19.27;;;11.73;;
38843;SDS011;24596;48.080;8.362;2023-08-20T07:04:36;13.73;;;10.60;;
38843;SDS011;24596;48.080;8.362;2023-08-20T07:07:01;14.73;;;10.25;;
38843;SDS011;24596;48.080;8.362;2023-08-20T07:09:26;16.07;;;10.20;;
38843;SDS011;24596;48.080;8.362;2023-08-20T07:11:51;12.48;;;8.75;;
38843;SDS011;24596;48.080;8.362;2023-08-20T07:14:16;15.20;;;8.73;;
38843;SDS011;24596;48.080;8.362;2023-08-20T07:16:42;11.37;;;7.47;;
38843;SDS011;24596;48.080;8.362;2023-08-20T07:19:07;9.90;;;6.90;;
38843;SDS011;24596;48.080;8.362;2023-08-20T07:21:32;13.77;;;7.40;;
38843;SDS011;24596;48.080;8.362;2023-08-20T07:23:57;13.27;;;6.73;;
38843;SDS011;24596;48.080;8.362;2023-08-20T07:26:23;14.02;;;6.20;;
38843;SDS011;24596;48.080;8.362;2023-08-20T07:28:48;13.43;;;5.70;;
38843;SDS011;24596;48.080;8.362;2023-08-20T07:31:22;10.88;;;5.90;;
38843;SDS011;24596;48.080;8.362;2023-08-20T07:33:52;12.18;;;6.18;;
38843;SDS011;24596;48.080;8.362;2023-08-20T07:36:18;12.45;;;7.10;;
38843;SDS011;24596;48.080;8.362;2023-08-20T07:38:44;11.95;;;6.70;;
38843;SDS011;24596;48.080;8.362;2023-08-20T07:41:09;10.25;;;6.55;;
38843;SDS011;24596;48.080;8.362;2023-08-20T07:43:36;10.30;;;6.40;;
38843;SDS011;24596;48.080;8.362;2023-08-20T07:46:02;11.25;;;6.68;;
38843;SDS011;24596;48.080;8.362;2023-08-20T07:48:28;11.68;;;6.82;;
38843;SDS011;24596;48.080;8.362;2023-08-20T07:50:53;9.75;;;6.50;;
38843;SDS011;24596;48.080;8.362;2023-08-20T07:53:18;11.77;;;6.73;;
38843;SDS011;24596;48.080;8.362;2023-08-20T07:55:44;14.73;;;6.40;;
38843;SDS011;24596;48.080;8.362;2023-08-20T07:58:09;10.95;;;6.53;;
38843;SDS011;24596;48.080;8.362;2023-08-20T08:00:34;11.07;;;6.68;;
38843;SDS011;24596;48.080;8.362;2023-08-20T08:03:00;9.82;;;6.35;;
38843;SDS011;24596;48.080;8.362;2023-08-20T08:05:25;12.38;;;6.45;;
38843;SDS011;24596;48.080;8.362;2023-08-20T08:07:50;11.97;;;6.27;;
38843;SDS011;24596;48.080;8.362;2023-08-20T08:10:15;8.73;;;5.47;;
38843;SDS011;24596;48.080;8.362;2023-08-20T08:12:41;12.07;;;6.03;;
38843;SDS011;24596;48.080;8.362;2023-08-20T08:15:06;12.48;;;6.00;;
38843;SDS011;24596;48.080;8.362;2023-08-20T08:17:31;11.88;;;6.25;;
38843;SDS011;24596;48.080;8.362;2023-08-20T08:19:56;9.03;;;5.73;;
38843;SDS011;24596;48.080;8.362;2023-08-20T08:22:22;11.60;;;6.10;;
38843;SDS011;24596;48.080;8.362;2023-08-20T08:24:48;13.40;;;5.75;;
38843;SDS011;24596;48.080;8.362;2023-08-20T08:27:13;11.23;;;5.63;;
38843;SDS011;24596;48.080;8.362;2023-08-20T08:29:38;11.60;;;5.10;;
38843;SDS011;24596;48.080;8.362;2023-08-20T08:32:03;9.67;;;5.80;;
38843;SDS011;24596;48.080;8.362;2023-08-20T08:34:28;10.17;;;5.47;;
38843;SDS011;24596;48.080;8.362;2023-08-20T08:36:54;13.65;;;4.88;;
38843;SDS011;24596;48.080;8.362;2023-08-20T08:39:19;10.60;;;5.87;;
38843;SDS011;24596;48.080;8.362;2023-08-20T08:41:49;12.63;;;5.28;;
38843;SDS011;24596;48.080;8.362;2023-08-20T08:44:14;11.65;;;4.97;;
38843;SDS011;24596;48.080;8.362;2023-08-20T08:46:40;8.85;;;5.13;;
38843;SDS011;24596;48.080;8.362;2023-08-20T08:49:05;10.33;;;6.07;;
38843;SDS011;24596;48.080;8.362;2023-08-20T08:51:31;9.85;;;4.63;;
38843;SDS011;24596;48.080;8.362;2023-08-20T08:53:58;12.20;;;5.47;;
38843;SDS011;24596;48.080;8.362;2023-08-20T08:56:24;9.60;;;4.97;;
38843;SDS011;24596;48.080;8.362;2023-08-20T08:58:49;12.80;;;4.73;;
38843;SDS011;24596;48.080;8.362;2023-08-20T09:01:14;12.68;;;4.45;;
38843;SDS011;24596;48.080;8.362;2023-08-20T09:03:39;10.50;;;5.20;;
38843;SDS011;24596;48.080;8.362;2023-08-20T09:06:08;13.55;;;5.47;;
38843;SDS011;24596;48.080;8.362;2023-08-20T09:08:33;12.07;;;4.72;;
38843;SDS011;24596;48.080;8.362;2023-08-20T09:11:00;10.70;;;5.07;;
38843;SDS011;24596;48.080;8.362;2023-08-20T09:13:27;10.20;;;5.47;;
38843;SDS011;24596;48.080;8.362;2023-08-20T09:18:22;10.60;;;5.25;;
38843;SDS011;24596;48.080;8.362;2023-08-20T09:20:48;11.20;;;4.87;;
38843;SDS011;24596;48.080;8.362;2023-08-20T09:23:14;11.13;;;5.05;;
38843;SDS011;24596;48.080;8.362;2023-08-20T09:25:39;11.75;;;5.15;;
38843;SDS011;24596;48.080;8.362;2023-08-20T09:28:05;12.32;;;5.38;;
38843;SDS011;24596;48.080;8.362;2023-08-20T09:30:30;15.80;;;5.97;;
38843;SDS011;24596;48.080;8.362;2023-08-20T09:33:06;12.00;;;5.40;;
38843;SDS011;24596;48.080;8.362;2023-08-20T09:35:32;9.20;;;4.00;;
38843;SDS011;24596;48.080;8.362;2023-08-20T09:38:00;12.75;;;5.05;;
38843;SDS011;24596;48.080;8.362;2023-08-20T09:40:26;10.20;;;4.95;;
38843;SDS011;24596;48.080;8.362;2023-08-20T09:42:52;12.45;;;4.80;;
38843;SDS011;24596;48.080;8.362;2023-08-20T09:45:18;15.15;;;5.07;;
38843;SDS011;24596;48.080;8.362;2023-08-20T09:47:44;13.15;;;5.43;;
38843;SDS011;24596;48.080;8.362;2023-08-20T09:50:10;11.43;;;4.63;;
38843;SDS011;24596;48.080;8.362;2023-08-20T09:52:40;11.88;;;5.13;;
38843;SDS011;24596;48.080;8.362;2023-08-20T09:55:09;10.50;;;4.50;;
38843;SDS011;24596;48.080;8.362;2023-08-20T10:00:03;9.73;;;5.20;;
38843;SDS011;24596;48.080;8.362;2023-08-20T10:02:30;10.23;;;4.78;;
38843;SDS011;24596;48.080;8.362;2023-08-20T10:04:56;9.18;;;4.80;;
38843;SDS011;24596;48.080;8.362;2023-08-20T10:07:22;12.27;;;5.70;;
38843;SDS011;24596;48.080;8.362;2023-08-20T10:09:49;10.20;;;4.63;;
38843;SDS011;24596;48.080;8.362;2023-08-20T10:12:16;10.93;;;4.93;;
38843;SDS011;24596;48.080;8.362;2023-08-20T10:14:42;12.10;;;5.55;;
38843;SDS011;24596;48.080;8.362;2023-08-20T10:17:07;10.45;;;5.28;;
38843;SDS011;24596;48.080;8.362;2023-08-20T10:19:33;12.30;;;4.78;;
38843;SDS011;24596;48.080;8.362;2023-08-20T10:21:58;9.80;;;5.07;;
38843;SDS011;24596;48.080;8.362;2023-08-20T10:24:23;11.23;;;4.80;;
38843;SDS011;24596;48.080;8.362;2023-08-20T10:26:49;11.93;;;5.17;;
38843;SDS011;24596;48.080;8.362;2023-08-20T10:29:35;7.30;;;4.80;;
38843;SDS011;24596;48.080;8.362;2023-08-20T10:32:03;9.75;;;4.78;;
38843;SDS011;24596;48.080;8.362;2023-08-20T10:34:31;12.32;;;5.57;;
38843;SDS011;24596;48.080;8.362;2023-08-20T10:36:57;11.30;;;5.38;;
38843;SDS011;24596;48.080;8.362;2023-08-20T10:39:22;8.13;;;4.90;;
38843;SDS011;24596;48.080;8.362;2023-08-20T10:41:48;11.73;;;5.70;;
38843;SDS011;24596;48.080;8.362;2023-08-20T10:44:14;9.60;;;5.13;;
38843;SDS011;24596;48.080;8.362;2023-08-20T10:46:49;9.40;;;4.72;;
38843;SDS011;24596;48.080;8.362;2023-08-20T10:49:15;10.95;;;5.45;;
38843;SDS011;24596;48.080;8.362;2023-08-20T10:51:44;12.30;;;5.13;;
38843;SDS011;24596;48.080;8.362;2023-08-20T10:54:12;9.45;;;5.18;;
38843;SDS011;24596;48.080;8.362;2023-08-20T10:56:38;10.65;;;5.47;;
38843;SDS011;24596;48.080;8.362;2023-08-20T10:59:26;14.65;;;5.70;;
38843;SDS011;24596;48.080;8.362;2023-08-20T11:01:52;11.15;;;5.53;;
38843;SDS011;24596;48.080;8.362;2023-08-20T11:04:19;11.57;;;5.80;;
38843;SDS011;24596;48.080;8.362;2023-08-20T11:06:55;10.73;;;5.72;;
38843;SDS011;24596;48.080;8.362;2023-08-20T11:09:30;12.38;;;5.20;;
38843;SDS011;24596;48.080;8.362;2023-08-20T11:11:56;11.35;;;5.50;;
38843;SDS011;24596;48.080;8.362;2023-08-20T11:14:21;9.02;;;5.93;;
38843;SDS011;24596;48.080;8.362;2023-08-20T11:16:47;16.30;;;5.85;;
38843;SDS011;24596;48.080;8.362;2023-08-20T11:19:14;11.43;;;6.35;;
38843;SDS011;24596;48.080;8.362;2023-08-20T11:21:42;12.90;;;5.10;;
38843;SDS011;24596;48.080;8.362;2023-08-20T11:24:08;11.93;;;5.72;;
38843;SDS011;24596;48.080;8.362;2023-08-20T11:26:33;10.60;;;5.28;;
38843;SDS011;24596;48.080;8.362;2023-08-20T11:29:08;8.95;;;4.90;;
38843;SDS011;24596;48.080;8.362;2023-08-20T11:31:34;10.02;;;5.25;;
38843;SDS011;24596;48.080;8.362;2023-08-20T11:34:01;8.38;;;5.07;;
38843;SDS011;24596;48.080;8.362;2023-08-20T11:36:27;11.05;;;5.32;;
38843;SDS011;24596;48.080;8.362;2023-08-20T11:38:52;11.73;;;5.47;;
38843;SDS011;24596;48.080;8.362;2023-08-20T11:41:18;12.05;;;5.53;;
38843;SDS011;24596;48.080;8.362;2023-08-20T11:43:43;9.95;;;5.57;;
38843;SDS011;24596;48.080;8.362;2023-08-20T11:46:12;10.00;;;5.30;;
38843;SDS011;24596;48.080;8.362;2023-08-20T11:48:38;15.10;;;5.70;;
38843;SDS011;24596;48.080;8.362;2023-08-20T11:51:03;11.77;;;5.40;;
38843;SDS011;24596;48.080;8.362;2023-08-20T11:53:29;11.30;;;5.78;;
38843;SDS011;24596;48.080;8.362;2023-08-20T11:55:54;12.07;;;5.35;;
38843;SDS011;24596;48.080;8.362;2023-08-20T11:58:19;12.03;;;6.67;;
38843;SDS011;24596;48.080;8.362;2023-08-20T12:00:48;11.75;;;5.13;;
38843;SDS011;24596;48.080;8.362;2023-08-20T12:03:13;12.18;;;5.03;;
38843;SDS011;24596;48.080;8.362;2023-08-20T12:05:40;10.77;;;5.37;;
38843;SDS011;24596;48.080;8.362;2023-08-20T12:08:06;9.38;;;5.13;;
38843;SDS011;24596;48.080;8.362;2023-08-20T12:10:32;11.53;;;5.63;;
38843;SDS011;24596;48.080;8.362;2023-08-20T12:12:57;11.27;;;5.45;;
38843;SDS011;24596;48.080;8.362;2023-08-20T12:15:23;11.98;;;4.60;;
38843;SDS011;24596;48.080;8.362;2023-08-20T12:18:22;12.45;;;5.30;;
38843;SDS011;24596;48.080;8.362;2023-08-20T12:20:40;13.68;;;4.95;;
38843;SDS011;24596;48.080;8.362;2023-08-20T12:23:06;11.52;;;5.57;;
38843;SDS011;24596;48.080;8.362;2023-08-20T12:25:32;14.68;;;6.82;;
38843;SDS011;24596;48.080;8.362;2023-08-20T12:27:58;12.02;;;6.10;;
38843;SDS011;24596;48.080;8.362;2023-08-20T12:30:23;16.52;;;6.45;;
38843;SDS011;24596;48.080;8.362;2023-08-20T12:32:49;12.70;;;5.53;;
38843;SDS011;24596;48.080;8.362;2023-08-20T12:35:14;12.97;;;5.73;;
38843;SDS011;24596;48.080;8.362;2023-08-20T12:37:39;12.05;;;5.57;;
38843;SDS011;24596;48.080;8.362;2023-08-20T12:40:05;14.80;;;5.77;;
38843;SDS011;24596;48.080;8.362;2023-08-20T12:42:35;11.98;;;5.85;;
38843;SDS011;24596;48.080;8.362;2023-08-20T12:45:00;10.27;;;5.28;;
38843;SDS011;24596;48.080;8.362;2023-08-20T12:47:25;13.07;;;5.50;;
38843;SDS011;24596;48.080;8.362;2023-08-20T12:49:51;10.40;;;5.23;;
38843;SDS011;24596;48.080;8.362;2023-08-20T12:52:16;13.00;;;5.50;;
38843;SDS011;24596;48.080;8.362;2023-08-20T12:54:41;11.27;;;5.83;;
38843;SDS011;24596;48.080;8.362;2023-08-20T12:57:06;11.63;;;6.40;;
38843;SDS011;24596;48.080;8.362;2023-08-20T12:59:32;10.55;;;5.38;;
38843;SDS011;24596;48.080;8.362;2023-08-20T13:01:57;11.90;;;5.85;;
38843;SDS011;24596;48.080;8.362;2023-08-20T13:04:23;10.27;;;5.63;;
38843;SDS011;24596;48.080;8.362;2023-08-20T13:06:48;11.95;;;6.03;;
38843;SDS011;24596;48.080;8.362;2023-08-20T13:09:14;10.25;;;5.25;;
38843;SDS011;24596;48.080;8.362;2023-08-20T13:11:40;10.00;;;5.18;;
38843;SDS011;24596;48.080;8.362;2023-08-20T13:14:07;10.10;;;5.43;;
38843;SDS011;24596;48.080;8.362;2023-08-20T13:16:33;13.98;;;6.00;;
38843;SDS011;24596;48.080;8.362;2023-08-20T13:18:58;13.25;;;5.63;;
38843;SDS011;24596;48.080;8.362;2023-08-20T13:21:24;11.98;;;5.50;;
38843;SDS011;24596;48.080;8.362;2023-08-20T13:23:49;14.70;;;5.85;;
38843;SDS011;24596;48.080;8.362;2023-08-20T13:26:14;11.33;;;5.40;;
38843;SDS011;24596;48.080;8.362;2023-08-20T13:28:39;11.25;;;5.78;;
38843;SDS011;24596;48.080;8.362;2023-08-20T13:31:05;10.25;;;5.40;;
38843;SDS011;24596;48.080;8.362;2023-08-20T13:33:30;13.23;;;6.43;;
38843;SDS011;24596;48.080;8.362;2023-08-20T13:35:55;12.20;;;6.73;;
38843;SDS011;24596;48.080;8.362;2023-08-20T13:38:22;10.52;;;6.55;;
38843;SDS011;24596;48.080;8.362;2023-08-20T13:40:47;11.80;;;6.88;;
38843;SDS011;24596;48.080;8.362;2023-08-20T13:43:13;15.60;;;6.97;;
38843;SDS011;24596;48.080;8.362;2023-08-20T13:45:39;11.43;;;6.88;;
38843;SDS011;24596;48.080;8.362;2023-08-20T13:48:04;15.30;;;6.45;;
38843;SDS011;24596;48.080;8.362;2023-08-20T13:50:30;14.75;;;6.57;;
38843;SDS011;24596;48.080;8.362;2023-08-20T13:52:55;10.93;;;6.38;;
38843;SDS011;24596;48.080;8.362;2023-08-20T13:55:20;14.67;;;7.33;;
38843;SDS011;24596;48.080;8.362;2023-08-20T13:57:46;13.00;;;6.68;;
38843;SDS011;24596;48.080;8.362;2023-08-20T14:00:11;14.23;;;6.80;;
38843;SDS011;24596;48.080;8.362;2023-08-20T14:02:37;13.55;;;6.65;;
38843;SDS011;24596;48.080;8.362;2023-08-20T14:05:03;16.30;;;6.85;;
38843;SDS011;24596;48.080;8.362;2023-08-20T14:07:32;13.23;;;7.80;;
38843;SDS011;24596;48.080;8.362;2023-08-20T14:10:00;16.20;;;7.40;;
38843;SDS011;24596;48.080;8.362;2023-08-20T14:12:25;9.30;;;6.15;;
38843;SDS011;24596;48.080;8.362;2023-08-20T14:14:50;12.83;;;6.10;;
38843;SDS011;24596;48.080;8.362;2023-08-20T14:17:16;14.52;;;5.80;;
38843;SDS011;24596;48.080;8.362;2023-08-20T14:19:41;9.33;;;6.33;;
38843;SDS011;24596;48.080;8.362;2023-08-20T14:22:06;12.77;;;7.33;;
38843;SDS011;24596;48.080;8.362;2023-08-20T14:24:32;13.60;;;6.70;;
38843;SDS011;24596;48.080;8.362;2023-08-20T14:26:57;14.70;;;6.30;;
38843;SDS011;24596;48.080;8.362;2023-08-20T14:29:22;11.03;;;6.60;;
38843;SDS011;24596;48.080;8.362;2023-08-20T14:31:47;13.27;;;6.80;;
38843;SDS011;24596;48.080;8.362;2023-08-20T14:34:13;14.38;;;6.90;;
38843;SDS011;24596;48.080;8.362;2023-08-20T14:36:38;11.02;;;6.28;;